createdAt,value
2022-11-16T00:00:51.062Z,41.80
2022-11-16T00:01:51.118Z,33.50
2022-11-16T00:02:51.035Z,43.40
2022-11-16T00:03:51.037Z,45.40
2022-11-16T00:04:51.007Z,47.70
2022-11-16T00:05:50.996Z,48.30
2022-11-16T00:06:51.023Z,44.10
2022-11-16T00:07:50.966Z,35.80
2022-11-16T00:08:50.969Z,44.80
2022-11-16T00:09:50.946Z,45.70
2022-11-16T00:10:50.926Z,45.60
2022-11-16T00:11:50.906Z,45.20
2022-11-16T00:12:50.887Z,47.50
2022-11-16T00:13:50.897Z,48.30
2022-11-16T00:14:50.865Z,42.00
2022-11-16T00:15:50.859Z,51.30
2022-11-16T00:16:50.837Z,43.20
2022-11-16T00:17:50.827Z,48.90
2022-11-16T00:18:50.819Z,48.90
2022-11-16T00:19:50.798Z,49.10
2022-11-16T00:20:50.781Z,52.00
2022-11-16T00:21:50.780Z,49.80
2022-11-16T00:22:50.763Z,51.00
2022-11-16T00:23:50.759Z,50.00
2022-11-16T00:24:50.729Z,43.70
2022-11-16T00:25:50.719Z,48.10
2022-11-16T00:26:50.712Z,49.90
2022-11-16T00:27:50.690Z,44.40
2022-11-16T00:28:50.689Z,46.80
2022-11-16T00:29:50.670Z,43.20
2022-11-16T00:30:50.648Z,47.70
2022-11-16T00:31:50.640Z,43.20
2022-11-16T00:32:50.619Z,49.00
2022-11-16T00:33:50.628Z,42.60
2022-11-16T00:34:50.589Z,44.80
2022-11-16T00:35:50.582Z,51.40
2022-11-16T00:36:50.561Z,56.80
2022-11-16T00:37:50.558Z,56.10
2022-11-16T00:38:50.550Z,60.10
2022-11-16T00:39:50.528Z,57.70
2022-11-16T00:40:50.512Z,51.10
2022-11-16T00:41:50.501Z,58.10
2022-11-16T00:42:50.484Z,47.20
2022-11-16T00:43:50.491Z,46.80
2022-11-16T00:44:50.454Z,54.50
2022-11-16T00:45:50.441Z,53.50
2022-11-16T00:46:50.433Z,54.40
2022-11-16T00:47:50.418Z,54.90
2022-11-16T00:48:50.416Z,60.60
2022-11-16T00:49:50.391Z,58.90
2022-11-16T00:50:50.374Z,57.10
2022-11-16T00:51:50.362Z,48.60
2022-11-16T00:52:50.342Z,45.00
2022-11-16T00:53:50.353Z,49.00
2022-11-16T00:54:50.313Z,62.80
2022-11-16T00:55:50.303Z,58.30
2022-11-16T00:56:50.298Z,57.60
2022-11-16T00:57:50.282Z,60.10
2022-11-16T00:58:50.274Z,63.20
2022-11-16T00:59:50.253Z,65.40
2022-11-16T01:00:50.289Z,55.90
2022-11-16T01:01:50.271Z,64.30
2022-11-16T01:02:50.211Z,68.30
2022-11-16T01:03:50.225Z,63.10
2022-11-16T01:04:50.182Z,50.90
2022-11-16T01:05:50.171Z,67.80
2022-11-16T01:06:50.217Z,62.40
2022-11-16T01:07:50.155Z,65.90
2022-11-16T01:08:50.144Z,65.00
2022-11-16T01:09:50.115Z,67.40
2022-11-16T01:10:50.096Z,59.20
2022-11-16T01:11:50.089Z,70.00
2022-11-16T01:12:50.067Z,59.30
2022-11-16T01:13:50.075Z,72.50
2022-11-16T01:14:50.035Z,66.90
2022-11-16T01:15:50.035Z,70.60
2022-11-16T01:16:50.015Z,54.50
2022-11-16T01:17:49.996Z,74.70
2022-11-16T01:18:49.997Z,67.70
2022-11-16T01:19:49.995Z,77.40
2022-11-16T01:20:49.959Z,64.10
2022-11-16T01:21:49.947Z,71.20
2022-11-16T01:22:49.938Z,61.30
2022-11-16T01:23:49.941Z,64.30
2022-11-16T01:24:49.903Z,67.70
2022-11-16T01:25:49.897Z,71.20
2022-11-16T01:26:49.878Z,76.50
2022-11-16T01:27:49.868Z,79.40
2022-11-16T01:28:49.868Z,73.30
2022-11-16T01:29:49.838Z,75.40
2022-11-16T01:30:49.819Z,78.00
2022-11-16T01:31:49.818Z,71.80
2022-11-16T01:32:49.797Z,75.90
2022-11-16T01:33:49.805Z,80.50
2022-11-16T01:34:49.768Z,72.40
2022-11-16T01:35:49.761Z,70.10
2022-11-16T01:36:49.740Z,79.00
2022-11-16T01:37:49.729Z,73.20
2022-11-16T01:38:49.750Z,91.90
2022-11-16T01:39:49.729Z,76.10
2022-11-16T01:40:49.707Z,78.70
2022-11-16T01:41:49.679Z,81.40
2022-11-16T01:42:49.656Z,79.70
2022-11-16T01:43:49.660Z,81.70
2022-11-16T01:44:49.629Z,82.20
2022-11-16T01:45:49.620Z,87.20
2022-11-16T01:46:49.609Z,87.80
2022-11-16T01:47:49.672Z,97.20
2022-11-16T01:48:49.657Z,88.70
2022-11-16T01:49:49.571Z,96.60
2022-11-16T01:50:49.557Z,92.10
2022-11-16T01:51:49.540Z,89.60
2022-11-16T01:52:49.521Z,92.80
2022-11-16T01:53:49.521Z,86.80
2022-11-16T01:54:49.490Z,92.90
2022-11-16T01:55:49.479Z,89.20
2022-11-16T01:56:49.460Z,87.50
2022-11-16T01:57:49.463Z,94.50
2022-11-16T01:58:49.453Z,95.40
2022-11-16T01:59:49.429Z,93.30
2022-11-16T02:00:49.496Z,95.70
2022-11-16T02:01:49.404Z,87.80
2022-11-16T02:02:49.381Z,88.90
2022-11-16T02:03:49.394Z,86.70
2022-11-16T02:04:49.354Z,94.90
2022-11-16T02:05:49.343Z,87.00
2022-11-16T02:06:49.396Z,89.70
2022-11-16T02:07:49.314Z,86.50
2022-11-16T02:08:49.313Z,94.20
2022-11-16T02:09:49.291Z,91.60
2022-11-16T02:10:49.270Z,85.70
2022-11-16T02:11:49.262Z,93.90
2022-11-16T02:12:49.260Z,88.30
2022-11-16T02:13:51.433Z,90.60
2022-11-16T02:14:49.216Z,87.70
2022-11-16T02:15:49.213Z,92.50
2022-11-16T02:16:49.193Z,87.70
2022-11-16T02:17:49.174Z,92.20
2022-11-16T02:18:49.180Z,92.60
2022-11-16T02:19:49.164Z,90.70
2022-11-16T02:20:49.134Z,95.60
2022-11-16T02:21:49.123Z,93.20
2022-11-16T02:22:49.105Z,97.50
2022-11-16T02:23:49.118Z,89.90
2022-11-16T02:24:49.077Z,96.10
2022-11-16T02:25:49.066Z,95.40
2022-11-16T02:26:49.049Z,98.20
2022-11-16T02:27:49.041Z,99.90
2022-11-16T02:28:49.035Z,104.30
2022-11-16T02:29:49.015Z,106.90
2022-11-16T02:30:48.992Z,104.20
2022-11-16T02:31:48.987Z,100.70
2022-11-16T02:32:48.975Z,106.20
2022-11-16T02:33:48.976Z,106.00
2022-11-16T02:34:48.937Z,111.00
2022-11-16T02:35:48.934Z,114.20
2022-11-16T02:36:48.907Z,107.60
2022-11-16T02:37:48.895Z,119.00
2022-11-16T02:38:48.895Z,110.00
2022-11-16T02:39:48.879Z,110.30
2022-11-16T02:40:48.856Z,101.60
2022-11-16T02:41:48.846Z,105.30
2022-11-16T02:42:48.843Z,103.90
2022-11-16T02:43:48.836Z,106.20
2022-11-16T02:44:48.797Z,105.40
2022-11-16T02:45:48.796Z,116.00
2022-11-16T02:46:48.766Z,105.20
2022-11-16T02:47:48.765Z,96.40
2022-11-16T02:48:48.767Z,105.20
2022-11-16T02:49:48.727Z,100.40
2022-11-16T02:50:48.718Z,106.20
2022-11-16T02:51:48.707Z,103.00
2022-11-16T02:52:48.703Z,109.60
2022-11-16T02:53:48.708Z,105.70
2022-11-16T02:54:48.657Z,104.60
2022-11-16T02:55:48.656Z,104.50
2022-11-16T02:56:48.629Z,104.10
2022-11-16T02:57:48.619Z,107.80
2022-11-16T02:58:48.628Z,103.30
2022-11-16T02:59:48.596Z,104.90
2022-11-16T03:00:48.620Z,116.10
2022-11-16T03:01:48.568Z,101.80
2022-11-16T03:02:48.549Z,110.40
2022-11-16T03:03:48.943Z,112.80
2022-11-16T03:04:48.520Z,99.70
2022-11-16T03:05:48.519Z,104.40
2022-11-16T03:06:48.535Z,103.20
2022-11-16T03:07:48.488Z,112.10
2022-11-16T03:08:48.481Z,104.40
2022-11-16T03:09:48.454Z,106.20
2022-11-16T03:10:48.441Z,104.70
2022-11-16T03:11:48.429Z,105.60
2022-11-16T03:12:48.410Z,111.20
2022-11-16T03:13:48.418Z,101.30
2022-11-16T03:14:48.381Z,113.10
2022-11-16T03:15:48.369Z,109.50
2022-11-16T03:16:48.360Z,102.10
2022-11-16T03:17:48.349Z,102.70
2022-11-16T03:18:48.343Z,105.50
2022-11-16T03:19:48.320Z,98.70
2022-11-16T03:20:48.304Z,106.30
2022-11-16T03:21:48.290Z,107.70
2022-11-16T03:22:48.302Z,106.10
2022-11-16T03:23:48.282Z,101.80
2022-11-16T03:24:48.252Z,99.50
2022-11-16T03:25:48.232Z,96.20
2022-11-16T03:26:48.222Z,98.80
2022-11-16T03:27:48.204Z,96.30
2022-11-16T03:28:48.222Z,93.60
2022-11-16T03:29:48.181Z,96.00
2022-11-16T03:30:48.176Z,100.50
2022-11-16T03:31:48.152Z,95.70
2022-11-16T03:32:48.142Z,96.30
2022-11-16T03:33:48.142Z,93.00
2022-11-16T03:34:48.114Z,95.20
2022-11-16T03:35:48.093Z,94.80
2022-11-16T03:36:48.093Z,97.60
2022-11-16T03:37:48.064Z,102.40
2022-11-16T03:38:48.098Z,98.00
2022-11-16T03:39:48.046Z,97.20
2022-11-16T03:40:48.034Z,91.10
2022-11-16T03:41:48.015Z,94.10
2022-11-16T03:42:48.005Z,98.20
2022-11-16T03:43:48.004Z,92.10
2022-11-16T03:44:47.975Z,99.00
2022-11-16T03:45:47.955Z,93.50
2022-11-16T03:46:47.958Z,97.00
2022-11-16T03:47:47.925Z,104.40
2022-11-16T03:48:47.936Z,99.90
2022-11-16T03:49:47.904Z,98.20
2022-11-16T03:50:47.895Z,97.20
2022-11-16T03:51:47.884Z,98.80
2022-11-16T03:52:47.864Z,103.00
2022-11-16T03:53:47.865Z,99.20
2022-11-16T03:54:47.845Z,107.70
2022-11-16T03:55:49.956Z,107.40
2022-11-16T03:56:47.806Z,102.60
2022-11-16T03:57:47.812Z,102.70
2022-11-16T03:58:47.796Z,102.50
2022-11-16T03:59:47.767Z,103.40
2022-11-16T04:00:47.833Z,101.10
2022-11-16T04:01:47.737Z,102.50
2022-11-16T04:02:47.729Z,95.90
2022-11-16T04:03:47.727Z,103.20
2022-11-16T04:04:47.707Z,105.90
2022-11-16T04:05:47.678Z,110.10
2022-11-16T04:06:47.701Z,108.30
2022-11-16T04:07:47.674Z,100.70
2022-11-16T04:08:47.656Z,115.70
2022-11-16T04:09:47.629Z,112.50
2022-11-16T04:10:47.618Z,114.60
2022-11-16T04:11:47.598Z,107.40
2022-11-16T04:12:47.610Z,121.50
2022-11-16T04:13:47.568Z,109.80
2022-11-16T04:14:47.568Z,111.80
2022-11-16T04:15:47.555Z,115.20
2022-11-16T04:16:47.536Z,114.40
2022-11-16T04:17:47.537Z,116.30
2022-11-16T04:18:47.511Z,149.80
2022-11-16T04:19:47.491Z,114.90
2022-11-16T04:20:47.480Z,114.90
2022-11-16T04:21:47.461Z,144.20
2022-11-16T04:22:47.557Z,110.20
2022-11-16T04:23:47.432Z,132.40
2022-11-16T04:24:47.430Z,228.40
2022-11-16T04:25:47.408Z,115.70
2022-11-16T04:26:47.402Z,180.80
2022-11-16T04:27:47.404Z,116.10
2022-11-16T04:28:47.371Z,111.80
2022-11-16T04:29:47.351Z,115.00
2022-11-16T04:30:47.351Z,110.50
2022-11-16T04:31:47.343Z,106.60
2022-11-16T04:32:47.332Z,106.30
2022-11-16T04:33:47.292Z,109.60
2022-11-16T04:34:47.291Z,108.30
2022-11-16T04:35:47.281Z,107.90
2022-11-16T04:36:47.255Z,105.50
2022-11-16T04:37:47.264Z,107.40
2022-11-16T04:38:47.233Z,106.00
2022-11-16T04:39:47.212Z,104.40
2022-11-16T04:40:47.213Z,106.90
2022-11-16T04:41:47.183Z,111.30
2022-11-16T04:42:47.193Z,111.10
2022-11-16T04:43:47.160Z,101.10
2022-11-16T04:44:47.153Z,107.00
2022-11-16T04:45:47.133Z,111.00
2022-11-16T04:46:47.124Z,100.90
2022-11-16T04:47:47.128Z,86.00
2022-11-16T04:48:47.114Z,86.50
2022-11-16T04:49:47.076Z,85.10
2022-11-16T04:50:47.066Z,87.10
2022-11-16T04:51:47.054Z,84.70
2022-11-16T04:52:47.056Z,79.00
2022-11-16T04:53:47.026Z,80.30
2022-11-16T04:54:47.005Z,78.80
2022-11-16T04:55:46.987Z,78.90
2022-11-16T04:56:46.994Z,85.80
2022-11-16T04:57:46.986Z,75.30
2022-11-16T04:58:46.956Z,67.80
2022-11-16T04:59:46.943Z,72.80
2022-11-16T05:00:46.926Z,79.20
2022-11-16T05:01:46.943Z,82.80
2022-11-16T05:02:46.926Z,469.50
2022-11-16T05:03:46.877Z,104.50
2022-11-16T05:04:46.876Z,108.90
2022-11-16T05:05:46.847Z,250.50
2022-11-16T05:06:47.015Z,72.60
2022-11-16T05:07:46.845Z,69.80
2022-11-16T05:08:46.819Z,110.10
2022-11-16T05:09:46.807Z,70.10
2022-11-16T05:10:46.797Z,76.50
2022-11-16T05:11:46.767Z,69.00
2022-11-16T05:12:46.817Z,66.40
2022-11-16T05:13:46.748Z,66.00
2022-11-16T05:14:46.736Z,65.80
2022-11-16T05:15:46.726Z,67.40
2022-11-16T05:16:46.710Z,64.20
2022-11-16T05:17:46.689Z,56.30
2022-11-16T05:18:46.703Z,64.90
2022-11-16T05:19:46.670Z,65.40
2022-11-16T05:20:46.650Z,64.80
2022-11-16T05:21:46.639Z,60.30
2022-11-16T05:22:46.627Z,58.90
2022-11-16T05:23:46.621Z,56.80
2022-11-16T05:24:46.589Z,61.70
2022-11-16T05:25:46.580Z,59.30
2022-11-16T05:26:46.569Z,58.00
2022-11-16T05:27:46.553Z,54.50
2022-11-16T05:28:46.561Z,52.10
2022-11-16T05:29:46.539Z,49.20
2022-11-16T05:30:46.512Z,48.80
2022-11-16T05:31:46.507Z,49.30
2022-11-16T05:32:46.490Z,48.00
2022-11-16T05:33:46.480Z,51.70
2022-11-16T05:34:46.461Z,57.70
2022-11-16T05:35:46.440Z,47.20
2022-11-16T05:36:46.433Z,47.20
2022-11-16T05:37:46.414Z,47.40
2022-11-16T05:38:46.454Z,43.00
2022-11-16T05:39:46.383Z,41.20
2022-11-16T05:40:46.387Z,44.10
2022-11-16T05:41:46.359Z,29.90
2022-11-16T05:42:46.352Z,34.70
2022-11-16T05:43:46.354Z,34.90
2022-11-16T05:44:46.324Z,35.80
2022-11-16T05:45:46.305Z,33.70
2022-11-16T05:46:46.312Z,33.50
2022-11-16T05:47:46.275Z,39.50
2022-11-16T05:48:46.281Z,33.80
2022-11-16T05:49:46.243Z,33.90
2022-11-16T05:50:46.234Z,30.90
2022-11-16T05:51:46.224Z,36.90
2022-11-16T05:52:46.213Z,35.90
2022-11-16T05:53:46.232Z,34.80
2022-11-16T05:54:46.186Z,32.60
2022-11-16T05:55:46.246Z,30.30
2022-11-16T05:56:46.156Z,32.10
2022-11-16T05:57:46.154Z,30.20
2022-11-16T05:58:46.164Z,29.00
2022-11-16T05:59:46.116Z,24.50
2022-11-16T06:00:46.116Z,26.40
2022-11-16T06:01:46.086Z,31.30
2022-11-16T06:02:46.161Z,27.10
2022-11-16T06:03:46.075Z,29.40
2022-11-16T06:04:46.056Z,24.00
2022-11-16T06:05:46.040Z,24.70
2022-11-16T06:06:46.026Z,24.40
2022-11-16T06:07:46.017Z,31.00
2022-11-16T06:08:46.036Z,28.20
2022-11-16T06:09:45.986Z,30.60
2022-11-16T06:10:45.966Z,28.20
2022-11-16T06:11:45.959Z,26.10
2022-11-16T06:12:45.948Z,32.00
2022-11-16T06:13:45.976Z,24.90
2022-11-16T06:14:45.926Z,25.80
2022-11-16T06:16:06.919Z,29.00
2022-11-16T06:16:45.889Z,29.40
2022-11-16T06:17:45.881Z,31.60
2022-11-16T06:18:45.887Z,26.40
2022-11-16T06:19:45.847Z,28.40
2022-11-16T06:20:45.837Z,30.20
2022-11-16T06:21:45.827Z,32.80
2022-11-16T06:22:45.809Z,27.10
2022-11-16T06:23:45.811Z,27.00
2022-11-16T06:24:45.770Z,29.20
2022-11-16T06:25:45.770Z,31.40
2022-11-16T06:26:45.749Z,31.60
2022-11-16T06:27:45.748Z,35.00
2022-11-16T06:28:45.750Z,30.60
2022-11-16T06:29:45.709Z,29.60
2022-11-16T06:30:45.699Z,32.30
2022-11-16T06:31:45.744Z,33.70
2022-11-16T06:32:45.670Z,34.00
2022-11-16T06:33:45.689Z,34.90
2022-11-16T06:34:45.640Z,33.10
2022-11-16T06:35:45.632Z,34.70
2022-11-16T06:36:45.623Z,32.90
2022-11-16T06:37:45.610Z,31.80
2022-11-16T06:38:45.620Z,30.90
2022-11-16T06:39:45.580Z,30.80
2022-11-16T06:40:45.560Z,30.90
2022-11-16T06:41:45.552Z,29.50
2022-11-16T06:42:45.542Z,30.00
2022-11-16T06:43:45.544Z,30.10
2022-11-16T06:44:45.511Z,30.00
2022-11-16T06:45:45.499Z,34.10
2022-11-16T06:46:45.489Z,38.10
2022-11-16T06:47:45.474Z,29.00
2022-11-16T06:48:45.471Z,31.30
2022-11-16T06:49:45.441Z,34.30
2022-11-16T06:50:45.421Z,32.10
2022-11-16T06:51:45.411Z,29.60
2022-11-16T06:52:45.406Z,36.40
2022-11-16T06:53:45.403Z,33.70
2022-11-16T06:54:45.372Z,36.00
2022-11-16T06:55:45.362Z,34.80
2022-11-16T06:56:45.343Z,30.60
2022-11-16T06:57:45.345Z,33.30
2022-11-16T06:58:45.337Z,34.90
2022-11-16T06:59:45.312Z,30.00
2022-11-16T07:00:45.300Z,33.10
2022-11-16T07:01:45.319Z,27.90
2022-11-16T07:02:45.284Z,28.90
2022-11-16T07:03:45.283Z,25.60
2022-11-16T07:04:45.234Z,29.90
2022-11-16T07:05:45.233Z,21.40
2022-11-16T07:06:45.221Z,30.00
2022-11-16T07:07:45.203Z,25.30
2022-11-16T07:08:45.201Z,24.20
2022-11-16T07:09:45.177Z,25.00
2022-11-16T07:10:45.153Z,25.60
2022-11-16T07:11:45.144Z,33.20
2022-11-16T07:12:45.156Z,31.40
2022-11-16T07:13:45.134Z,28.30
2022-11-16T07:14:45.105Z,26.60
2022-11-16T07:15:45.095Z,36.30
2022-11-16T07:16:45.088Z,28.30
2022-11-16T07:17:45.072Z,31.30
2022-11-16T07:18:45.074Z,34.00
2022-11-16T07:19:45.034Z,28.80
2022-11-16T07:20:45.027Z,28.60
2022-11-16T07:21:45.007Z,29.30
2022-11-16T07:22:45.009Z,34.20
2022-11-16T07:23:44.996Z,27.90
2022-11-16T07:24:44.976Z,27.80
2022-11-16T07:25:44.956Z,31.00
2022-11-16T07:26:44.953Z,32.90
2022-11-16T07:27:44.936Z,31.60
2022-11-16T07:28:48.079Z,31.60
2022-11-16T07:29:44.904Z,29.70
2022-11-16T07:30:44.894Z,33.80
2022-11-16T07:31:44.912Z,30.70
2022-11-16T07:32:44.874Z,35.30
2022-11-16T07:33:44.880Z,29.20
2022-11-16T07:34:44.844Z,34.90
2022-11-16T07:35:44.827Z,26.80
2022-11-16T07:36:44.815Z,25.70
2022-11-16T07:37:44.814Z,32.70
2022-11-16T07:38:44.812Z,27.70
2022-11-16T07:39:44.774Z,28.70
2022-11-16T07:40:44.769Z,30.70
2022-11-16T07:41:44.761Z,25.10
2022-11-16T07:42:44.738Z,27.20
2022-11-16T07:43:49.953Z,26.30
2022-11-16T07:44:45.717Z,25.60
2022-11-16T07:45:44.691Z,29.50
2022-11-16T07:46:47.083Z,28.20
2022-11-16T07:47:44.658Z,30.30
2022-11-16T07:48:44.659Z,26.00
2022-11-16T07:49:44.656Z,34.50
2022-11-16T07:50:44.628Z,26.30
2022-11-16T07:51:44.605Z,32.00
2022-11-16T07:52:44.598Z,28.80
2022-11-16T07:53:44.581Z,25.30
2022-11-16T07:54:44.597Z,30.60
2022-11-16T07:55:44.557Z,28.40
2022-11-16T07:56:44.540Z,23.90
2022-11-16T07:57:47.914Z,30.70
2022-11-16T07:58:45.517Z,29.20
2022-11-16T07:59:44.510Z,23.80
2022-11-16T08:00:44.491Z,27.00
2022-11-16T08:01:44.529Z,28.80
2022-11-16T08:02:44.463Z,20.70
2022-11-16T08:03:44.441Z,24.70
2022-11-16T08:04:44.453Z,20.70
2022-11-16T08:05:44.411Z,22.00
2022-11-16T08:06:44.410Z,22.60
2022-11-16T08:07:44.390Z,22.30
2022-11-16T08:08:44.382Z,27.10
2022-11-16T08:09:44.420Z,26.80
2022-11-16T08:10:44.350Z,21.30
2022-11-16T08:11:44.331Z,25.20
2022-11-16T08:12:44.322Z,24.30
2022-11-16T08:13:44.312Z,27.40
2022-11-16T08:14:44.312Z,23.20
2022-11-16T08:15:44.283Z,24.30
2022-11-16T08:16:44.272Z,22.50
2022-11-16T08:17:44.253Z,30.20
2022-11-16T08:18:44.261Z,27.80
2022-11-16T08:19:44.222Z,29.50
2022-11-16T08:20:44.212Z,23.10
2022-11-16T08:21:44.197Z,26.20
2022-11-16T08:22:44.192Z,27.90
2022-11-16T08:23:44.192Z,37.10
2022-11-16T08:24:44.162Z,31.60
2022-11-16T08:25:44.148Z,37.80
2022-11-16T08:26:44.138Z,29.70
2022-11-16T08:27:44.123Z,32.80
2022-11-16T08:28:44.127Z,26.30
2022-11-16T08:29:44.111Z,28.30
2022-11-16T08:30:45.587Z,32.30
2022-11-16T08:31:44.063Z,27.70
2022-11-16T08:32:44.053Z,33.00
2022-11-16T08:33:44.055Z,34.10
2022-11-16T08:34:44.089Z,24.50
2022-11-16T08:35:44.013Z,26.70
2022-11-16T08:36:44.002Z,26.10
2022-11-16T08:37:43.984Z,30.60
2022-11-16T08:38:43.993Z,27.10
2022-11-16T08:39:43.965Z,33.00
2022-11-16T08:40:43.944Z,25.40
2022-11-16T08:41:43.935Z,28.90
2022-11-16T08:42:44.186Z,25.60
2022-11-16T08:43:43.918Z,31.20
2022-11-16T08:44:43.895Z,28.50
2022-11-16T08:45:43.876Z,25.60
2022-11-16T08:46:43.874Z,17.90
2022-11-16T08:47:43.846Z,22.50
2022-11-16T08:48:43.848Z,17.50
2022-11-16T08:49:49.246Z,18.60
2022-11-16T08:51:10.491Z,15.30
2022-11-16T08:51:44.787Z,21.40
2022-11-16T08:52:43.785Z,18.50
2022-11-16T08:54:53.590Z,19.60
2022-11-16T08:55:53.567Z,18.90
2022-11-16T08:56:53.551Z,17.60
2022-11-16T08:57:53.547Z,16.70
2022-11-16T08:58:58.107Z,17.00
2022-11-16T08:59:54.511Z,17.20
2022-11-16T09:00:53.493Z,12.50
2022-11-16T09:01:53.511Z,20.50
2022-11-16T09:02:53.472Z,18.80
2022-11-16T09:03:53.479Z,19.00
2022-11-16T09:04:53.433Z,18.20
2022-11-16T09:05:53.432Z,13.80
2022-11-16T09:06:53.492Z,18.60
2022-11-16T09:07:53.403Z,19.10
2022-11-16T09:08:53.403Z,25.00
2022-11-16T09:09:53.374Z,16.30
2022-11-16T09:10:53.354Z,17.50
2022-11-16T09:11:53.352Z,17.10
2022-11-16T09:12:53.333Z,20.10
2022-11-16T09:13:53.342Z,18.20
2022-11-16T09:14:53.303Z,23.20
2022-11-16T09:15:53.294Z,23.60
2022-11-16T09:16:53.276Z,21.90
2022-11-16T09:17:53.265Z,16.20
2022-11-16T09:18:53.265Z,18.00
2022-11-16T09:19:53.255Z,13.30
2022-11-16T09:20:53.226Z,15.40
2022-11-16T09:21:53.216Z,16.90
2022-11-16T09:22:53.195Z,17.20
2022-11-16T09:23:53.205Z,12.30
2022-11-16T09:24:53.176Z,15.60
2022-11-16T09:25:53.155Z,13.20
2022-11-16T09:26:53.143Z,18.40
2022-11-16T09:27:53.137Z,14.10
2022-11-16T09:28:53.126Z,16.90
2022-11-16T09:29:53.107Z,15.80
2022-11-16T09:30:53.087Z,11.90
2022-11-16T09:31:53.077Z,12.10
2022-11-16T09:32:53.067Z,14.80
2022-11-16T09:33:53.064Z,14.00
2022-11-16T09:34:53.036Z,16.10
2022-11-16T09:35:53.016Z,10.90
2022-11-16T09:36:53.007Z,12.40
2022-11-16T09:37:52.989Z,12.10
2022-11-16T09:39:53.965Z,13.00
2022-11-16T09:40:52.955Z,10.40
2022-11-16T09:41:52.937Z,15.00
2022-11-16T09:42:52.927Z,10.20
2022-11-16T09:43:52.928Z,12.00
2022-11-16T09:44:52.905Z,11.70
2022-11-16T09:45:53.039Z,9.80
2022-11-16T09:46:52.878Z,12.20
2022-11-16T09:47:52.853Z,11.60
2022-11-16T09:48:52.858Z,11.40
2022-11-16T09:49:54.111Z,8.30
2022-11-16T09:50:52.818Z,10.90
2022-11-16T09:51:52.799Z,8.60
2022-11-16T09:52:52.790Z,12.40
2022-11-16T09:53:52.789Z,6.80
2022-11-16T09:54:52.771Z,8.80
2022-11-16T09:55:52.755Z,9.60
2022-11-16T09:56:52.742Z,11.30
2022-11-16T09:57:52.716Z,10.20
2022-11-16T09:58:52.746Z,8.50
2022-11-16T09:59:52.701Z,10.20
2022-11-16T10:00:52.723Z,9.10
2022-11-16T10:01:52.661Z,10.90
2022-11-16T10:02:52.651Z,8.90
2022-11-16T10:03:52.638Z,11.30
2022-11-16T10:04:57.907Z,11.30
2022-11-16T10:05:53.611Z,10.40
2022-11-16T10:06:52.648Z,11.50
2022-11-16T10:07:52.583Z,16.20
2022-11-16T10:08:52.581Z,9.70
2022-11-16T10:09:52.572Z,8.20
2022-11-16T10:10:52.550Z,8.90
2022-11-16T10:11:52.521Z,9.60
2022-11-16T10:12:52.523Z,11.40
2022-11-16T10:13:52.512Z,7.50
2022-11-16T10:14:52.512Z,10.00
2022-11-16T10:15:52.473Z,10.70
2022-11-16T10:16:52.474Z,6.90
2022-11-16T10:17:52.444Z,8.10
2022-11-16T10:18:52.443Z,12.80
2022-11-16T10:19:52.435Z,13.50
2022-11-16T10:20:52.412Z,9.90
2022-11-16T10:21:52.396Z,9.30
2022-11-16T10:22:52.384Z,8.00
2022-11-16T10:23:52.375Z,11.70
2022-11-16T10:24:52.374Z,7.10
2022-11-16T10:25:52.335Z,9.50
2022-11-16T10:26:52.335Z,8.10
2022-11-16T10:27:52.311Z,11.00
2022-11-16T10:28:52.304Z,10.60
2022-11-16T10:29:52.314Z,10.40
2022-11-16T10:30:52.282Z,8.20
2022-11-16T10:31:52.265Z,12.10
2022-11-16T10:32:52.246Z,8.30
2022-11-16T10:33:52.226Z,7.30
2022-11-16T10:34:52.260Z,8.80
2022-11-16T10:35:52.204Z,8.80
2022-11-16T10:36:52.198Z,11.10
2022-11-16T10:37:52.180Z,9.80
2022-11-16T10:38:52.177Z,9.00
2022-11-16T10:39:52.167Z,15.10
2022-11-16T10:40:52.138Z,9.00
2022-11-16T10:41:52.132Z,10.90
2022-11-16T10:42:52.115Z,6.30
2022-11-16T10:43:52.097Z,7.50
2022-11-16T10:44:52.097Z,8.60
2022-11-16T10:45:52.066Z,7.80
2022-11-16T10:46:52.060Z,11.30
2022-11-16T10:47:52.046Z,10.00
2022-11-16T10:48:52.034Z,10.40
2022-11-16T10:49:52.029Z,7.80
2022-11-16T10:50:52.008Z,13.00
2022-11-16T10:51:51.987Z,11.10
2022-11-16T10:52:51.980Z,11.60
2022-11-16T10:53:51.959Z,8.50
2022-11-16T10:54:51.966Z,15.80
2022-11-16T10:55:51.929Z,12.50
2022-11-16T10:56:51.921Z,9.70
2022-11-16T10:57:51.900Z,11.90
2022-11-16T10:58:51.918Z,8.90
2022-11-16T10:59:51.891Z,7.90
2022-11-16T11:00:52.092Z,10.00
2022-11-16T11:01:51.849Z,9.20
2022-11-16T11:02:51.840Z,11.40
2022-11-16T11:03:51.822Z,10.00
2022-11-16T11:04:51.835Z,9.80
2022-11-16T11:05:51.803Z,8.40
2022-11-16T11:06:51.858Z,10.10
2022-11-16T11:07:56.754Z,12.10
2022-11-16T11:08:52.761Z,11.00
2022-11-16T11:09:51.755Z,9.80
2022-11-16T11:10:51.733Z,12.00
2022-11-16T11:11:51.714Z,7.60
2022-11-16T11:12:51.703Z,8.60
2022-11-16T11:13:51.684Z,10.40
2022-11-16T11:14:51.694Z,9.20
2022-11-16T11:15:51.703Z,8.60
2022-11-16T11:16:51.647Z,10.60
2022-11-16T11:17:51.635Z,9.30
2022-11-16T11:18:51.628Z,8.00
2022-11-16T11:19:51.626Z,12.20
2022-11-16T11:20:51.594Z,9.90
2022-11-16T11:21:51.586Z,8.80
2022-11-16T11:22:51.570Z,9.10
2022-11-16T11:23:51.557Z,12.00
2022-11-16T11:24:51.561Z,9.00
2022-11-16T11:25:51.542Z,8.80
2022-11-16T11:26:51.516Z,9.90
2022-11-16T11:27:51.496Z,9.60
2022-11-16T11:28:51.512Z,9.60
2022-11-16T11:29:51.477Z,7.20
2022-11-16T11:30:51.459Z,10.00
2022-11-16T11:31:51.440Z,9.20
2022-11-16T11:32:51.429Z,9.20
2022-11-16T11:33:51.439Z,9.20
2022-11-16T11:34:51.407Z,13.70
2022-11-16T11:35:51.390Z,8.70
2022-11-16T11:36:51.400Z,11.00
2022-11-16T11:37:51.360Z,9.60
2022-11-16T11:38:51.396Z,7.90
2022-11-16T11:39:51.338Z,9.60
2022-11-16T11:40:51.322Z,13.70
2022-11-16T11:41:51.311Z,7.80
2022-11-16T11:42:51.301Z,11.70
2022-11-16T11:43:51.292Z,10.60
2022-11-16T11:44:51.289Z,14.00
2022-11-16T11:45:51.282Z,10.10
2022-11-16T11:48:00.013Z,9.40
2022-11-16T11:48:52.232Z,12.00
2022-11-16T11:49:51.202Z,11.40
2022-11-16T11:50:51.191Z,8.20
2022-11-16T11:51:51.172Z,11.10
2022-11-16T11:52:51.162Z,10.40
2022-11-16T11:53:51.163Z,7.60
2022-11-16T11:54:51.153Z,8.70
2022-11-16T11:55:51.114Z,12.20
2022-11-16T11:56:51.111Z,12.40
2022-11-16T11:57:51.086Z,11.00
2022-11-16T11:58:51.094Z,7.00
2022-11-16T11:59:51.064Z,13.00
2022-11-16T12:00:51.068Z,10.50
2022-11-16T12:01:51.034Z,11.30
2022-11-16T12:02:51.053Z,10.50
2022-11-16T12:03:51.028Z,13.30
2022-11-16T12:04:51.003Z,12.90
2022-11-16T12:05:50.987Z,12.30
2022-11-16T12:06:51.031Z,8.90
2022-11-16T12:07:50.954Z,9.00
2022-11-16T12:08:50.955Z,11.80
2022-11-16T12:09:50.926Z,10.90
2022-11-16T12:10:50.918Z,9.60
2022-11-16T12:11:50.897Z,8.60
2022-11-16T12:12:50.887Z,8.30
2022-11-16T12:13:50.890Z,9.00
2022-11-16T12:14:50.867Z,6.50
2022-11-16T12:15:50.849Z,9.80
2022-11-16T12:16:50.839Z,9.80
2022-11-16T12:17:50.820Z,11.90
2022-11-16T12:18:50.828Z,10.50
2022-11-16T12:19:50.791Z,12.40
2022-11-16T12:20:50.780Z,9.10
2022-11-16T12:21:50.769Z,13.30
2022-11-16T12:22:50.749Z,9.50
2022-11-16T12:23:50.753Z,11.70
2022-11-16T12:24:50.751Z,9.10
2022-11-16T12:25:50.730Z,11.20
2022-11-16T12:26:50.701Z,11.30
2022-11-16T12:27:50.681Z,11.40
2022-11-16T12:28:51.323Z,9.40
2022-11-16T12:29:50.650Z,8.30
2022-11-16T12:30:50.652Z,12.60
2022-11-16T12:31:50.632Z,11.90
2022-11-16T12:32:50.621Z,9.60
2022-11-16T12:33:50.620Z,12.50
2022-11-16T12:34:50.590Z,6.40
2022-11-16T12:35:50.581Z,8.50
2022-11-16T12:36:50.562Z,9.40
2022-11-16T12:37:50.543Z,12.50
2022-11-16T12:38:50.562Z,11.70
2022-11-16T12:39:50.515Z,8.70
2022-11-16T12:40:50.512Z,11.60
2022-11-16T12:41:50.493Z,7.90
2022-11-16T12:42:50.484Z,9.70
2022-11-16T12:43:50.490Z,8.60
2022-11-16T12:44:50.484Z,9.50
2022-11-16T12:45:50.433Z,8.70
2022-11-16T12:46:50.424Z,13.00
2022-11-16T12:47:50.411Z,12.00
2022-11-16T12:48:50.427Z,6.20
2022-11-16T12:49:50.383Z,10.30
2022-11-16T12:50:50.384Z,9.40
2022-11-16T12:51:50.384Z,6.70
2022-11-16T12:52:50.346Z,8.70
2022-11-16T12:53:50.356Z,10.10
2022-11-16T12:55:19.006Z,8.20
2022-11-16T12:55:51.296Z,8.30